Time;durP1;ratioP1;P1;durP2;ratioP2;P2;SDS_P1;SDS_P2;PMS_P1;PMS_P2;Temp;Humidity;BMP_temperature;BMP_pressure;BME280_temperature;BME280_humidity;BME280_pressure;Samples;Min_cycle;Max_cycle;Signal;HPM_P1;HPM_P2
2021/08/05 00:00:45;;;;;;;19.17;11.55;;;;;;;;;;6279535;22;20316;-85
2021/08/05 00:03:12;;;;;;;14.52;11.30;;;;;;;;;;6279291;22;20276;-85
2021/08/05 00:05:39;;;;;;;15.68;11.75;;;;;;;;;;6252323;22;20352;-85
2021/08/05 00:08:08;;;;;;;19.10;12.60;;;;;;;;;;6252863;22;20440;-83
2021/08/05 00:10:35;;;;;;;18.23;14.05;;;;;;;;;;6251183;22;20035;-83
2021/08/05 00:13:02;;;;;;;18.42;14.23;;;;;;;;;;6277046;22;20223;-83
2021/08/05 00:15:35;;;;;;;18.90;14.13;;;;;;;;;;6253918;22;20047;-83
2021/08/05 00:18:02;;;;;;;20.20;13.07;;;;;;;;;;6262853;22;20063;-82
2021/08/05 00:20:29;;;;;;;16.42;13.85;;;;;;;;;;6270827;22;20047;-82
2021/08/05 00:22:55;;;;;;;17.55;14.88;;;;;;;;;;6261775;22;20317;-83
2021/08/05 00:25:22;;;;;;;19.88;14.20;;;;;;;;;;6250857;22;20030;-83
2021/08/05 00:27:49;;;;;;;21.08;14.98;;;;;;;;;;6250058;22;20074;-83
2021/08/05 00:30:15;;;;;;;19.60;15.38;;;;;;;;;;6251097;22;20460;-83
2021/08/05 00:32:42;;;;;;;18.27;14.85;;;;;;;;;;6251306;22;20027;-83
2021/08/05 00:35:09;;;;;;;19.42;14.85;;;;;;;;;;6257839;22;20015;-83
2021/08/05 00:37:36;;;;;;;22.95;16.30;;;;;;;;;;6271455;22;20046;-82
2021/08/05 00:40:03;;;;;;;23.63;16.95;;;;;;;;;;6265945;22;20034;-82
2021/08/05 00:42:30;;;;;;;20.13;16.45;;;;;;;;;;6265722;22;20051;-83
2021/08/05 00:44:57;;;;;;;21.75;17.27;;;;;;;;;;6293308;22;20049;-83
2021/08/05 00:47:27;;;;;;;22.23;17.88;;;;;;;;;;6294695;22;20032;-83
2021/08/05 00:49:55;;;;;;;22.98;18.17;;;;;;;;;;6268116;22;20038;-83
2021/08/05 00:52:23;;;;;;;23.00;18.90;;;;;;;;;;6263934;22;20030;-83
2021/08/05 00:54:50;;;;;;;28.35;20.83;;;;;;;;;;6253614;22;20023;-83
2021/08/05 00:57:17;;;;;;;28.65;22.75;;;;;;;;;;6276563;22;20094;-83
2021/08/05 00:59:54;;;;;;;30.58;25.85;;;;;;;;;;6250590;22;20074;-82
2021/08/05 01:02:21;;;;;;;28.25;23.88;;;;;;;;;;6249546;22;20028;-83
2021/08/05 01:04:50;;;;;;;30.75;23.67;;;;;;;;;;6250789;22;20024;-83
2021/08/05 01:07:32;;;;;;;30.77;25.75;;;;;;;;;;6277618;22;20027;-82
2021/08/05 01:10:28;;;;;;;31.00;24.55;;;;;;;;;;6249983;22;20020;-83
2021/08/05 01:13:30;;;;;;;30.38;24.25;;;;;;;;;;6245107;22;20054;-82
2021/08/05 01:16:03;;;;;;;30.05;25.17;;;;;;;;;;6123405;23;20061;-81
2021/08/05 01:18:32;;;;;;;30.02;23.08;;;;;;;;;;6253198;22;20027;-82
2021/08/05 01:21:03;;;;;;;28.27;23.83;;;;;;;;;;6276878;22;20028;-82
2021/08/05 01:23:34;;;;;;;29.85;23.83;;;;;;;;;;6249792;22;20042;-81
2021/08/05 01:26:07;;;;;;;38.15;24.65;;;;;;;;;;6277230;22;20035;-81
2021/08/05 01:28:35;;;;;;;33.85;25.52;;;;;;;;;;6249817;22;20122;-82
2021/08/05 01:31:04;;;;;;;31.55;25.90;;;;;;;;;;6248987;22;20024;-82
2021/08/05 01:33:31;;;;;;;30.15;24.48;;;;;;;;;;6248359;22;20024;-82
2021/08/05 01:35:58;;;;;;;32.20;25.95;;;;;;;;;;6277389;22;20071;-82
2021/08/05 01:38:25;;;;;;;27.65;24.25;;;;;;;;;;6249245;22;20027;-82
2021/08/05 01:40:52;;;;;;;30.05;23.77;;;;;;;;;;6275054;22;20118;-82
2021/08/05 01:43:22;;;;;;;28.73;23.65;;;;;;;;;;6248942;22;20116;-82
2021/08/05 01:45:49;;;;;;;29.60;25.80;;;;;;;;;;6249371;22;20034;-82
2021/08/05 01:48:17;;;;;;;27.13;24.10;;;;;;;;;;6249851;22;20305;-82
2021/08/05 01:50:44;;;;;;;29.15;23.60;;;;;;;;;;6276366;22;20115;-82
2021/08/05 01:53:14;;;;;;;28.48;23.67;;;;;;;;;;6251338;22;20026;-84
2021/08/05 01:55:41;;;;;;;31.27;25.02;;;;;;;;;;6251593;22;20404;-84
2021/08/05 01:58:12;;;;;;;32.03;23.77;;;;;;;;;;6253005;22;20055;-85
2021/08/05 02:00:39;;;;;;;33.13;24.27;;;;;;;;;;6253916;22;20024;-84
2021/08/05 02:03:08;;;;;;;28.20;25.10;;;;;;;;;;6253137;22;20397;-83
2021/08/05 02:05:54;;;;;;;33.80;26.60;;;;;;;;;;6254735;22;20028;-83
2021/08/05 02:08:22;;;;;;;35.47;27.10;;;;;;;;;;6255650;22;20401;-84
2021/08/05 02:10:50;;;;;;;32.13;24.50;;;;;;;;;;6280317;22;20074;-84
2021/08/05 02:13:17;;;;;;;27.85;22.83;;;;;;;;;;6281576;22;20027;-84
2021/08/05 02:15:55;;;;;;;30.95;25.98;;;;;;;;;;6281230;22;20024;-84
2021/08/05 02:18:22;;;;;;;32.38;25.55;;;;;;;;;;6282340;22;20038;-84
2021/08/05 02:20:49;;;;;;;29.45;22.85;;;;;;;;;;6254343;22;20091;-84
2021/08/05 02:23:17;;;;;;;31.70;24.35;;;;;;;;;;6255081;22;20023;-84
2021/08/05 02:25:49;;;;;;;33.55;25.88;;;;;;;;;;6282082;22;20040;-84
2021/08/05 02:28:16;;;;;;;33.75;25.83;;;;;;;;;;6254920;22;20055;-83
2021/08/05 02:30:43;;;;;;;29.55;25.17;;;;;;;;;;6279725;22;20027;-81
2021/08/05 02:33:10;;;;;;;32.33;25.48;;;;;;;;;;6249797;22;20027;-82
2021/08/05 02:35:41;;;;;;;36.30;25.52;;;;;;;;;;6279813;22;20408;-82
2021/08/05 02:38:08;;;;;;;39.92;29.52;;;;;;;;;;6279914;22;20149;-82
2021/08/05 02:40:35;;;;;;;32.95;27.75;;;;;;;;;;6279544;22;20032;-85
2021/08/05 02:43:06;;;;;;;39.40;27.60;;;;;;;;;;6254452;22;20272;-85
2021/08/05 02:45:34;;;;;;;35.88;27.52;;;;;;;;;;6255634;22;20118;-84
2021/08/05 02:48:01;;;;;;;30.88;26.45;;;;;;;;;;6255984;22;20024;-86
2021/08/05 02:50:31;;;;;;;31.75;25.02;;;;;;;;;;6256245;22;20025;-86
2021/08/05 02:52:58;;;;;;;36.28;25.88;;;;;;;;;;6280110;22;20023;-86
2021/08/05 02:55:25;;;;;;;30.35;24.38;;;;;;;;;;6281128;22;20086;-87
2021/08/05 02:57:52;;;;;;;30.88;23.58;;;;;;;;;;6262609;22;20042;-84
2021/08/05 03:00:19;;;;;;;30.88;24.10;;;;;;;;;;6266845;22;20028;-85
2021/08/05 03:02:46;;;;;;;26.00;22.02;;;;;;;;;;6288909;22;20099;-81
2021/08/05 03:05:13;;;;;;;30.38;24.30;;;;;;;;;;6286018;22;20036;-82
2021/08/05 03:07:40;;;;;;;32.03;25.17;;;;;;;;;;6257451;22;20063;-82
2021/08/05 03:10:09;;;;;;;30.20;23.27;;;;;;;;;;6253903;22;20019;-81
2021/08/05 03:12:35;;;;;;;33.92;27.00;;;;;;;;;;6276318;22;20244;-82
2021/08/05 03:15:02;;;;;;;36.45;26.23;;;;;;;;;;6249982;22;20187;-82
2021/08/05 03:17:29;;;;;;;34.40;24.67;;;;;;;;;;6276469;22;20028;-81
2021/08/05 03:19:55;;;;;;;34.05;27.35;;;;;;;;;;6250599;22;20313;-82
2021/08/05 03:22:22;;;;;;;33.17;25.83;;;;;;;;;;6250241;22;20364;-81
2021/08/05 03:24:51;;;;;;;33.90;26.08;;;;;;;;;;6249565;22;20393;-82
2021/08/05 03:27:26;;;;;;;35.55;27.00;;;;;;;;;;6252410;22;20106;-82
2021/08/05 03:29:59;;;;;;;35.90;27.02;;;;;;;;;;6278456;22;20043;-83
2021/08/05 03:32:28;;;;;;;40.25;28.95;;;;;;;;;;6248993;22;20109;-81
2021/08/05 03:34:57;;;;;;;38.25;29.48;;;;;;;;;;6254876;22;20035;-82
2021/08/05 03:37:26;;;;;;;38.15;28.85;;;;;;;;;;6298344;22;20090;-83
2021/08/05 03:39:53;;;;;;;43.20;31.70;;;;;;;;;;6297040;22;20007;-82
2021/08/05 03:42:20;;;;;;;50.75;35.40;;;;;;;;;;6271464;22;20220;-82
2021/08/05 03:44:46;;;;;;;44.53;32.13;;;;;;;;;;6263463;22;20028;-83
2021/08/05 03:47:16;;;;;;;45.00;31.88;;;;;;;;;;6257400;22;20024;-82
2021/08/05 03:49:43;;;;;;;46.70;32.92;;;;;;;;;;6253752;22;20023;-81
2021/08/05 03:52:10;;;;;;;44.03;32.83;;;;;;;;;;6270641;22;20035;-82
2021/08/05 03:54:47;;;;;;;43.83;33.40;;;;;;;;;;6290098;22;20074;-83
2021/08/05 03:57:16;;;;;;;41.63;30.13;;;;;;;;;;6268685;22;20062;-82
2021/08/05 03:59:43;;;;;;;42.53;31.00;;;;;;;;;;6280331;22;20054;-82
2021/08/05 04:02:10;;;;;;;41.55;30.10;;;;;;;;;;6278127;22;20066;-82
2021/08/05 04:04:38;;;;;;;45.45;29.75;;;;;;;;;;6251953;22;20024;-82
2021/08/05 04:07:05;;;;;;;54.97;37.13;;;;;;;;;;6279434;22;20031;-83
2021/08/05 04:09:31;;;;;;;52.30;37.65;;;;;;;;;;6253530;22;20062;-82
2021/08/05 04:11:58;;;;;;;55.30;39.45;;;;;;;;;;6253502;22;20069;-82
2021/08/05 04:14:25;;;;;;;53.70;37.95;;;;;;;;;;6253015;22;20028;-83
2021/08/05 04:16:52;;;;;;;48.28;35.40;;;;;;;;;;6252068;22;20027;-82
2021/08/05 04:19:18;;;;;;;38.50;31.38;;;;;;;;;;6251980;22;20027;-82
2021/08/05 04:21:49;;;;;;;34.50;29.33;;;;;;;;;;6279137;22;20065;-82
2021/08/05 04:24:16;;;;;;;40.25;30.65;;;;;;;;;;6250896;22;20053;-82
2021/08/05 04:26:43;;;;;;;36.97;31.38;;;;;;;;;;6251387;22;20031;-82
2021/08/05 04:29:09;;;;;;;39.38;30.90;;;;;;;;;;6249976;22;20023;-82
2021/08/05 04:31:40;;;;;;;39.17;29.65;;;;;;;;;;6248999;22;20110;-81
2021/08/05 04:34:07;;;;;;;38.83;30.77;;;;;;;;;;6249797;22;20031;-82
2021/08/05 04:36:34;;;;;;;38.28;28.55;;;;;;;;;;6250585;22;20031;-81
2021/08/05 04:39:01;;;;;;;32.08;26.25;;;;;;;;;;6275645;22;20126;-82
2021/08/05 04:41:29;;;;;;;30.77;26.42;;;;;;;;;;6278078;22;20035;-81
2021/08/05 04:43:56;;;;;;;30.55;25.55;;;;;;;;;;6279586;22;20024;-82
2021/08/05 04:46:29;;;;;;;29.02;23.58;;;;;;;;;;6255956;22;20111;-82
2021/08/05 04:48:56;;;;;;;30.05;22.45;;;;;;;;;;6255028;22;20023;-82
2021/08/05 04:51:31;;;;;;;32.85;24.95;;;;;;;;;;6257271;22;20046;-81
2021/08/05 04:54:00;;;;;;;24.50;21.83;;;;;;;;;;6282833;22;20023;-82
2021/08/05 04:56:27;;;;;;;22.27;18.60;;;;;;;;;;6251074;22;20205;-82
2021/08/05 04:58:55;;;;;;;25.88;18.60;;;;;;;;;;6274879;22;20031;-82
2021/08/05 05:01:22;;;;;;;17.45;15.07;;;;;;;;;;6278338;22;20024;-81
2021/08/05 05:03:53;;;;;;;18.00;15.07;;;;;;;;;;6277086;22;20024;-82
2021/08/05 05:06:23;;;;;;;14.80;13.23;;;;;;;;;;6282239;22;20020;-82
2021/08/05 05:08:52;;;;;;;14.20;12.70;;;;;;;;;;6277169;22;20034;-83
2021/08/05 05:11:19;;;;;;;13.80;11.77;;;;;;;;;;6237331;22;20023;-81
2021/08/05 05:13:51;;;;;;;12.30;10.20;;;;;;;;;;6277297;22;20069;-82
2021/08/05 05:16:18;;;;;;;11.65;10.00;;;;;;;;;;6278526;22;20024;-82
2021/08/05 05:18:48;;;;;;;11.50;9.43;;;;;;;;;;6250995;22;20031;-82
2021/08/05 05:21:19;;;;;;;10.18;8.38;;;;;;;;;;6264695;22;20046;-82
2021/08/05 05:23:48;;;;;;;10.77;8.43;;;;;;;;;;6248130;22;20031;-82
2021/08/05 05:26:15;;;;;;;10.02;7.80;;;;;;;;;;6246588;22;20422;-82
2021/08/05 05:28:42;;;;;;;10.30;8.48;;;;;;;;;;6245749;22;20355;-82
2021/08/05 05:31:09;;;;;;;9.98;8.93;;;;;;;;;;6246884;22;20075;-83
2021/08/05 05:33:53;;;;;;;12.93;7.90;;;;;;;;;;6272723;22;20159;-83
2021/08/05 05:36:20;;;;;;;9.98;8.02;;;;;;;;;;6279918;22;20031;-83
2021/08/05 05:39:00;;;;;;;11.20;8.00;;;;;;;;;;6249043;22;20478;-82
2021/08/05 05:41:27;;;;;;;11.48;8.38;;;;;;;;;;6249340;22;20027;-83
2021/08/05 05:43:54;;;;;;;16.20;7.28;;;;;;;;;;6274466;22;20406;-83
2021/08/05 05:46:24;;;;;;;8.77;6.57;;;;;;;;;;6248421;22;20496;-83
2021/08/05 05:48:51;;;;;;;9.50;6.97;;;;;;;;;;6271134;22;20023;-82
2021/08/05 05:51:18;;;;;;;12.57;6.72;;;;;;;;;;6248348;22;20274;-83
2021/08/05 05:53:49;;;;;;;9.90;6.13;;;;;;;;;;6250988;22;20164;-85
2021/08/05 05:56:20;;;;;;;6.93;5.70;;;;;;;;;;6250856;22;20024;-84
2021/08/05 05:58:49;;;;;;;12.55;6.45;;;;;;;;;;6251975;22;20328;-84
2021/08/05 06:01:16;;;;;;;8.77;6.10;;;;;;;;;;6277715;22;20031;-85
2021/08/05 06:03:49;;;;;;;8.32;6.82;;;;;;;;;;6276477;22;20047;-85
2021/08/05 06:06:15;;;;;;;13.75;6.25;;;;;;;;;;6251199;22;20074;-86
2021/08/05 06:08:42;;;;;;;11.30;5.72;;;;;;;;;;6278017;22;20023;-85
2021/08/05 06:11:18;;;;;;;9.75;4.60;;;;;;;;;;6278216;22;20023;-85
2021/08/05 06:13:47;;;;;;;7.57;4.85;;;;;;;;;;6251633;22;20024;-86
2021/08/05 06:16:14;;;;;;;8.20;5.07;;;;;;;;;;6251351;22;20034;-87
2021/08/05 06:18:54;;;;;;;6.05;4.65;;;;;;;;;;6278286;22;20028;-84
2021/08/05 06:21:26;;;;;;;9.55;4.75;;;;;;;;;;6280051;22;20372;-85
2021/08/05 06:23:53;;;;;;;7.85;4.63;;;;;;;;;;6252249;22;20023;-85
2021/08/05 06:26:24;;;;;;;7.00;4.22;;;;;;;;;;6278358;22;20031;-81
2021/08/05 06:28:51;;;;;;;7.57;4.93;;;;;;;;;;6277376;22;20394;-82
2021/08/05 06:31:20;;;;;;;5.80;4.57;;;;;;;;;;6249533;22;20076;-83
2021/08/05 06:33:54;;;;;;;7.47;4.80;;;;;;;;;;6279080;22;20023;-83
2021/08/05 06:36:24;;;;;;;;;;;;;;;;;;6278443;22;20374;-83
2021/08/05 06:38:51;;;;;;;7.35;3.97;;;;;;;;;;6247170;22;20083;-82
2021/08/05 06:41:25;;;;;;;5.63;3.38;;;;;;;;;;6260617;22;20031;-81
2021/08/05 06:43:52;;;;;;;4.88;3.72;;;;;;;;;;6294563;22;20054;-84
2021/08/05 06:46:22;;;;;;;5.40;3.55;;;;;;;;;;6294637;22;20019;-84
2021/08/05 06:48:52;;;;;;;6.28;3.63;;;;;;;;;;6267068;22;20057;-83
2021/08/05 06:51:20;;;;;;;7.55;3.80;;;;;;;;;;6290085;22;20007;-84
2021/08/05 06:53:49;;;;;;;6.85;3.72;;;;;;;;;;6258505;22;20031;-82
2021/08/05 06:56:19;;;;;;;6.63;4.10;;;;;;;;;;6293003;22;20182;-82
2021/08/05 06:58:46;;;;;;;8.60;4.22;;;;;;;;;;6287491;22;20042;-84
2021/08/05 07:01:13;;;;;;;5.70;4.03;;;;;;;;;;6271080;22;20049;-82
2021/08/05 07:03:40;;;;;;;7.68;3.72;;;;;;;;;;6244827;22;20139;-83
2021/08/05 07:06:07;;;;;;;9.55;4.13;;;;;;;;;;6272176;22;20410;-83
2021/08/05 07:08:35;;;;;;;7.00;4.00;;;;;;;;;;6272888;22;20051;-83
2021/08/05 07:11:02;;;;;;;7.85;4.25;;;;;;;;;;6244132;22;20051;-83
2021/08/05 07:13:29;;;;;;;7.60;4.53;;;;;;;;;;6270826;22;20447;-82
2021/08/05 07:16:02;;;;;;;7.80;4.95;;;;;;;;;;6271993;22;20555;-84
2021/08/05 07:18:33;;;;;;;7.90;4.10;;;;;;;;;;6250437;22;20020;-83
2021/08/05 07:21:00;;;;;;;9.48;4.40;;;;;;;;;;6247933;22;20465;-83
2021/08/05 07:23:27;;;;;;;8.70;3.92;;;;;;;;;;6244979;22;20102;-83
2021/08/05 07:25:57;;;;;;;5.22;3.65;;;;;;;;;;6270467;22;20024;-83
2021/08/05 07:28:24;;;;;;;8.02;3.80;;;;;;;;;;6247149;22;20020;-83
2021/08/05 07:30:52;;;;;;;5.30;4.20;;;;;;;;;;6245338;22;20047;-82
2021/08/05 07:33:19;;;;;;;6.95;4.18;;;;;;;;;;6243100;22;20260;-83
2021/08/05 07:35:46;;;;;;;11.48;4.80;;;;;;;;;;6248272;22;20027;-82
2021/08/05 07:38:23;;;;;;;8.02;3.95;;;;;;;;;;6243328;22;20147;-83
2021/08/05 07:40:56;;;;;;;8.15;4.07;;;;;;;;;;6274047;22;20015;-83
2021/08/05 07:43:26;;;;;;;7.88;4.72;;;;;;;;;;6240611;22;20031;-83
2021/08/05 07:45:58;;;;;;;7.72;4.28;;;;;;;;;;6240924;22;20545;-82
2021/08/05 07:48:31;;;;;;;9.43;4.30;;;;;;;;;;6242300;22;20020;-83
2021/08/05 07:50:58;;;;;;;7.30;4.65;;;;;;;;;;6270611;22;20028;-83
2021/08/05 07:53:25;;;;;;;9.95;4.65;;;;;;;;;;6242758;22;20031;-84
2021/08/05 07:55:52;;;;;;;8.90;4.10;;;;;;;;;;6243693;22;20314;-83
2021/08/05 07:58:19;;;;;;;8.43;4.47;;;;;;;;;;6243191;22;20073;-83
2021/08/05 08:00:47;;;;;;;7.72;4.30;;;;;;;;;;6267344;22;20120;-83
2021/08/05 08:03:15;;;;;;;5.88;4.88;;;;;;;;;;6264072;22;20046;-83
2021/08/05 08:05:44;;;;;;;8.40;4.78;;;;;;;;;;6265081;22;20107;-83
2021/08/05 08:08:11;;;;;;;8.75;4.75;;;;;;;;;;6241525;22;20602;-83
2021/08/05 08:10:39;;;;;;;7.95;4.32;;;;;;;;;;6241974;22;20030;-83
2021/08/05 08:13:22;;;;;;;7.18;4.22;;;;;;;;;;6268491;22;20030;-83
2021/08/05 08:15:49;;;;;;;7.43;4.28;;;;;;;;;;6271489;22;20496;-83
2021/08/05 08:18:17;;;;;;;8.52;3.70;;;;;;;;;;6243990;22;20068;-83
2021/08/05 08:21:11;;;;;;;11.75;4.15;;;;;;;;;;6243866;22;20106;-85
2021/08/05 08:23:38;;;;;;;7.75;4.65;;;;;;;;;;6241787;22;20023;-84
2021/08/05 08:26:06;;;;;;;14.93;3.60;;;;;;;;;;6248216;22;20474;-82
2021/08/05 08:28:33;;;;;;;7.05;3.88;;;;;;;;;;6241773;22;20062;-83
2021/08/05 08:31:00;;;;;;;8.60;4.10;;;;;;;;;;6266794;22;20019;-82
2021/08/05 08:33:27;;;;;;;5.82;3.88;;;;;;;;;;6265940;22;20028;-83
2021/08/05 08:35:54;;;;;;;4.78;3.75;;;;;;;;;;6238146;22;20120;-83
2021/08/05 08:38:23;;;;;;;8.07;3.58;;;;;;;;;;6239337;22;20034;-82
2021/08/05 08:40:54;;;;;;;8.88;3.60;;;;;;;;;;6271749;22;20053;-82
2021/08/05 08:43:21;;;;;;;5.85;3.83;;;;;;;;;;6241245;22;20081;-83
2021/08/05 08:45:52;;;;;;;5.72;3.88;;;;;;;;;;6239157;22;20024;-83
2021/08/05 08:48:31;;;;;;;9.90;4.60;;;;;;;;;;6227761;22;20106;-83
2021/08/05 08:51:02;;;;;;;7.63;4.05;;;;;;;;;;6240580;22;20066;-82
2021/08/05 08:53:34;;;;;;;11.25;4.20;;;;;;;;;;6239341;22;20271;-83
2021/08/05 08:56:03;;;;;;;6.72;4.57;;;;;;;;;;6239758;22;20031;-83
2021/08/05 08:58:30;;;;;;;5.57;3.90;;;;;;;;;;6240221;22;20058;-83
2021/08/05 09:00:57;;;;;;;7.00;4.05;;;;;;;;;;6267476;22;20028;-83
2021/08/05 09:03:25;;;;;;;6.13;4.20;;;;;;;;;;6240304;22;20063;-82
2021/08/05 09:05:52;;;;;;;5.10;4.30;;;;;;;;;;6240373;22;20306;-83
2021/08/05 09:08:19;;;;;;;7.35;4.20;;;;;;;;;;6239848;22;20027;-84
2021/08/05 09:10:46;;;;;;;6.32;4.30;;;;;;;;;;6267715;22;20378;-84
2021/08/05 09:13:15;;;;;;;7.00;3.58;;;;;;;;;;6243864;22;20023;-82
2021/08/05 09:15:46;;;;;;;7.72;3.95;;;;;;;;;;6267018;22;20078;-82
2021/08/05 09:18:32;;;;;;;8.98;4.22;;;;;;;;;;6240165;22;20027;-83
2021/08/05 09:21:08;;;;;;;11.35;4.18;;;;;;;;;;6237486;22;20027;-83
2021/08/05 09:24:01;;;;;;;6.28;3.47;;;;;;;;;;6262395;22;20260;-83
2021/08/05 09:26:50;;;;;;;12.02;4.43;;;;;;;;;;6240834;22;20020;-83
2021/08/05 09:29:20;;;;;;;9.77;4.22;;;;;;;;;;6266342;22;20090;-83
2021/08/05 09:31:50;;;;;;;7.10;4.60;;;;;;;;;;6263441;22;20271;-82
2021/08/05 09:34:23;;;;;;;13.00;5.03;;;;;;;;;;6264146;22;20032;-83
2021/08/05 09:36:58;;;;;;;7.50;4.45;;;;;;;;;;6235456;22;20221;-83
2021/08/05 09:39:26;;;;;;;8.73;4.47;;;;;;;;;;6265718;22;20282;-82
2021/08/05 09:41:56;;;;;;;6.20;3.72;;;;;;;;;;6262579;22;20500;-82
2021/08/05 09:44:23;;;;;;;5.75;3.92;;;;;;;;;;6236675;22;20020;-82
2021/08/05 09:47:02;;;;;;;6.40;4.72;;;;;;;;;;6239168;22;20032;-82
2021/08/05 09:49:29;;;;;;;8.30;5.05;;;;;;;;;;6258595;22;20024;-82
2021/08/05 09:51:56;;;;;;;6.10;3.85;;;;;;;;;;6254607;22;20023;-82
2021/08/05 09:54:37;;;;;;;5.50;4.28;;;;;;;;;;6241205;22;20259;-82
2021/08/05 09:57:04;;;;;;;10.15;3.75;;;;;;;;;;6243141;22;20024;-82
2021/08/05 09:59:31;;;;;;;5.95;3.55;;;;;;;;;;6255366;22;20510;-82
2021/08/05 10:02:07;;;;;;;8.10;3.53;;;;;;;;;;6279834;22;20305;-83
2021/08/05 10:04:35;;;;;;;8.10;4.18;;;;;;;;;;6268781;22;20033;-83
2021/08/05 10:07:03;;;;;;;6.55;4.00;;;;;;;;;;6238112;22;20020;-83
2021/08/05 10:09:34;;;;;;;4.75;3.92;;;;;;;;;;6237536;22;20050;-82
2021/08/05 10:12:09;;;;;;;4.40;3.92;;;;;;;;;;6239372;22;20039;-84
2021/08/05 10:14:35;;;;;;;5.95;4.50;;;;;;;;;;6255268;22;20018;-83
2021/08/05 10:17:04;;;;;;;8.13;4.28;;;;;;;;;;6258046;22;20011;-82
2021/08/05 10:19:35;;;;;;;5.75;4.22;;;;;;;;;;6255599;22;20027;-83
2021/08/05 10:22:02;;;;;;;7.75;4.72;;;;;;;;;;6253714;22;20028;-83
2021/08/05 10:24:33;;;;;;;5.20;4.05;;;;;;;;;;6273914;22;20023;-83
2021/08/05 10:27:04;;;;;;;5.25;4.53;;;;;;;;;;6242428;22;20069;-83
2021/08/05 10:29:31;;;;;;;5.47;3.65;;;;;;;;;;6270396;22;20039;-83
2021/08/05 10:31:59;;;;;;;4.53;4.10;;;;;;;;;;6238758;22;20037;-83
2021/08/05 10:34:26;;;;;;;4.57;4.07;;;;;;;;;;6232950;23;20270;-83
2021/08/05 10:36:54;;;;;;;8.13;4.30;;;;;;;;;;6234959;23;20172;-82
2021/08/05 10:39:24;;;;;;;4.82;3.92;;;;;;;;;;6207407;23;20049;-83
2021/08/05 10:41:51;;;;;;;3.85;2.72;;;;;;;;;;6232210;23;20413;-82
2021/08/05 10:44:17;;;;;;;3.20;2.78;;;;;;;;;;6207102;23;20035;-82
2021/08/05 10:46:46;;;;;;;3.75;3.10;;;;;;;;;;6210723;23;20028;-82
2021/08/05 10:49:17;;;;;;;6.20;2.63;;;;;;;;;;6233351;23;20024;-82
2021/08/05 10:51:44;;;;;;;4.47;2.70;;;;;;;;;;6206953;23;20054;-82
2021/08/05 10:54:34;;;;;;;5.43;2.50;;;;;;;;;;6208970;23;20039;-82
2021/08/05 10:57:14;;;;;;;3.00;2.70;;;;;;;;;;6236454;23;20070;-83
2021/08/05 11:00:14;;;;;;;5.03;2.42;;;;;;;;;;6207734;23;20330;-82
2021/08/05 11:02:55;;;;;;;2.55;2.35;;;;;;;;;;6236196;23;20035;-82
2021/08/05 11:05:23;;;;;;;3.88;2.30;;;;;;;;;;6236244;23;20058;-83
2021/08/05 11:07:51;;;;;;;2.75;2.42;;;;;;;;;;6236697;23;20189;-83
2021/08/05 11:10:25;;;;;;;2.92;2.60;;;;;;;;;;6236932;23;20279;-83
2021/08/05 11:12:56;;;;;;;3.30;3.00;;;;;;;;;;6240743;23;20333;-82
2021/08/05 11:15:26;;;;;;;4.32;2.95;;;;;;;;;;6240379;23;20449;-83
2021/08/05 11:18:17;;;;;;;2.78;2.40;;;;;;;;;;6210732;23;20193;-83
2021/08/05 11:20:50;;;;;;;4.32;2.70;;;;;;;;;;6239162;23;20094;-83
2021/08/05 11:23:28;;;;;;;4.37;3.03;;;;;;;;;;6241214;23;20024;-83
2021/08/05 11:25:55;;;;;;;5.88;2.60;;;;;;;;;;6241460;23;20406;-83
2021/08/05 11:28:49;;;;;;;5.63;3.22;;;;;;;;;;6215904;23;20074;-85
2021/08/05 11:31:22;;;;;;;4.05;3.58;;;;;;;;;;6217831;23;20451;-83
2021/08/05 11:33:50;;;;;;;5.25;3.42;;;;;;;;;;6243819;22;20072;-84
2021/08/05 11:36:22;;;;;;;3.95;3.17;;;;;;;;;;6242823;23;20024;-84
2021/08/05 11:39:00;;;;;;;5.43;3.53;;;;;;;;;;6213215;23;20024;-84
2021/08/05 11:41:36;;;;;;;4.90;3.60;;;;;;;;;;6212182;23;20106;-83
2021/08/05 11:44:28;;;;;;;6.28;4.28;;;;;;;;;;6210408;23;20053;-84
2021/08/05 11:47:14;;;;;;;3.65;3.08;;;;;;;;;;6237936;23;20024;-83
2021/08/05 11:49:42;;;;;;;4.78;3.63;;;;;;;;;;6213868;23;20039;-83
2021/08/05 11:52:12;;;;;;;4.20;3.60;;;;;;;;;;6235869;23;20028;-83
2021/08/05 11:54:51;;;;;;;4.47;4.07;;;;;;;;;;6210287;23;20024;-84
2021/08/05 11:57:19;;;;;;;9.05;3.63;;;;;;;;;;6208498;23;20074;-83
2021/08/05 11:59:53;;;;;;;4.53;3.97;;;;;;;;;;6211075;23;20070;-84
2021/08/05 12:02:21;;;;;;;7.57;4.20;;;;;;;;;;6210864;23;20020;-84
2021/08/05 12:04:49;;;;;;;5.90;3.13;;;;;;;;;;6216729;23;20051;-83
2021/08/05 12:07:20;;;;;;;8.70;3.70;;;;;;;;;;6242998;23;20265;-84
2021/08/05 12:09:50;;;;;;;5.85;3.33;;;;;;;;;;6214444;23;20030;-82
2021/08/05 12:12:17;;;;;;;5.55;3.50;;;;;;;;;;6212550;23;20106;-83
2021/08/05 12:14:48;;;;;;;9.48;3.47;;;;;;;;;;6215581;23;20024;-82
2021/08/05 12:17:16;;;;;;;4.07;3.28;;;;;;;;;;6214824;23;20294;-83
2021/08/05 12:19:47;;;;;;;6.10;3.33;;;;;;;;;;6226608;23;20040;-83
2021/08/05 12:22:14;;;;;;;4.50;2.92;;;;;;;;;;6253577;22;20016;-84
2021/08/05 12:24:47;;;;;;;7.72;3.20;;;;;;;;;;6230118;22;20064;-83
2021/08/05 12:27:18;;;;;;;5.38;3.60;;;;;;;;;;6228090;23;20024;-83
2021/08/05 12:29:58;;;;;;;4.50;2.75;;;;;;;;;;6251397;23;20024;-84
2021/08/05 12:32:25;;;;;;;4.28;2.40;;;;;;;;;;6239251;23;20024;-84
2021/08/05 12:35:12;;;;;;;4.07;3.30;;;;;;;;;;6244891;22;20410;-83
2021/08/05 12:37:41;;;;;;;5.00;3.63;;;;;;;;;;6290646;22;20167;-83
2021/08/05 12:40:08;;;;;;;4.13;3.20;;;;;;;;;;6266329;22;20023;-83
2021/08/05 12:42:35;;;;;;;3.85;3.47;;;;;;;;;;6240904;22;20123;-84
2021/08/05 12:45:02;;;;;;;5.07;2.97;;;;;;;;;;6246538;22;20127;-83
2021/08/05 12:47:29;;;;;;;3.92;2.95;;;;;;;;;;6253286;22;20011;-83
2021/08/05 12:49:56;;;;;;;4.15;3.20;;;;;;;;;;6278656;22;20024;-82
2021/08/05 12:52:36;;;;;;;4.45;2.80;;;;;;;;;;6280787;22;20024;-83
2021/08/05 12:55:03;;;;;;;3.95;2.80;;;;;;;;;;6257551;22;20054;-84
2021/08/05 12:57:34;;;;;;;3.80;2.90;;;;;;;;;;6256625;22;20067;-82
2021/08/05 13:00:23;;;;;;;8.57;2.60;;;;;;;;;;6249742;22;20028;-83
2021/08/05 13:02:59;;;;;;;3.17;2.80;;;;;;;;;;6271825;22;20024;-84
2021/08/05 13:05:30;;;;;;;3.80;3.20;;;;;;;;;;6248359;22;20035;-84
2021/08/05 13:07:57;;;;;;;3.42;2.50;;;;;;;;;;6242623;22;20094;-83
2021/08/05 13:10:41;;;;;;;4.93;2.83;;;;;;;;;;6243090;22;20019;-84
2021/08/05 13:13:08;;;;;;;3.53;3.13;;;;;;;;;;6277866;22;20126;-83
2021/08/05 13:15:35;;;;;;;2.75;2.55;;;;;;;;;;6250243;22;20215;-86
2021/08/05 13:18:03;;;;;;;5.35;2.75;;;;;;;;;;6245384;22;20020;-83
2021/08/05 13:20:30;;;;;;;3.97;2.65;;;;;;;;;;6267827;22;20083;-84
2021/08/05 13:23:00;;;;;;;4.18;2.80;;;;;;;;;;6242798;22;20024;-84
2021/08/05 13:25:43;;;;;;;4.43;2.90;;;;;;;;;;6266506;22;20123;-84
2021/08/05 13:28:11;;;;;;;5.22;2.50;;;;;;;;;;6291332;22;20290;-84
2021/08/05 13:30:49;;;;;;;3.60;2.58;;;;;;;;;;6240605;22;20028;-83
2021/08/05 13:33:29;;;;;;;2.50;2.30;;;;;;;;;;6238048;22;20081;-83
2021/08/05 13:35:57;;;;;;;3.92;2.45;;;;;;;;;;6236834;23;20287;-83
2021/08/05 13:38:27;;;;;;;2.80;2.38;;;;;;;;;;6255803;22;20067;-84
2021/08/05 13:40:57;;;;;;;6.63;3.08;;;;;;;;;;6257047;22;20156;-83
2021/08/05 13:43:24;;;;;;;3.88;2.50;;;;;;;;;;6240907;23;20596;-84
2021/08/05 13:45:51;;;;;;;3.80;2.38;;;;;;;;;;6234801;23;20024;-84
2021/08/05 13:48:18;;;;;;;7.05;2.50;;;;;;;;;;6210509;23;20070;-84
2021/08/05 13:50:45;;;;;;;2.95;2.30;;;;;;;;;;6237884;23;20024;-84
2021/08/05 13:53:14;;;;;;;3.00;2.42;;;;;;;;;;6211064;23;20413;-84
2021/08/05 13:55:42;;;;;;;4.75;2.35;;;;;;;;;;6209659;23;20202;-83
2021/08/05 13:58:15;;;;;;;2.55;2.35;;;;;;;;;;6209335;23;20081;-83
2021/08/05 14:00:42;;;;;;;2.88;2.10;;;;;;;;;;6236072;23;20616;-83
2021/08/05 14:03:09;;;;;;;2.33;2.13;;;;;;;;;;6210116;23;20024;-83
2021/08/05 14:05:39;;;;;;;2.17;1.98;;;;;;;;;;6212936;23;20034;-84
2021/08/05 14:08:06;;;;;;;2.42;2.10;;;;;;;;;;6213352;23;20030;-84
2021/08/05 14:10:32;;;;;;;5.22;2.30;;;;;;;;;;6212718;23;20021;-85
2021/08/05 14:13:11;;;;;;;2.70;2.50;;;;;;;;;;6210390;23;20035;-83
2021/08/05 14:15:38;;;;;;;;;;;;;;;;;;6209687;23;20040;-83
2021/08/05 14:18:07;;;;;;;;;;;;;;;;;;6212583;23;19915;-82
2021/08/05 14:20:41;;;;;;;3.63;2.25;;;;;;;;;;6236800;23;19946;-83
2021/08/05 14:23:08;;;;;;;7.20;2.40;;;;;;;;;;6237094;23;20390;-83
2021/08/05 14:25:55;;;;;;;3.53;2.33;;;;;;;;;;6237171;23;20082;-83
2021/08/05 14:28:21;;;;;;;5.30;2.30;;;;;;;;;;6234876;23;20052;-83
2021/08/05 14:30:48;;;;;;;2.45;2.00;;;;;;;;;;6211282;23;20120;-84
2021/08/05 14:33:15;;;;;;;2.90;2.47;;;;;;;;;;6212123;22;20024;-83
2021/08/05 14:35:41;;;;;;;3.17;2.65;;;;;;;;;;6208981;23;20034;-83
2021/08/05 14:38:08;;;;;;;3.90;2.53;;;;;;;;;;6217947;23;20116;-83
2021/08/05 14:40:38;;;;;;;4.03;2.55;;;;;;;;;;6241842;23;20024;-84
2021/08/05 14:43:05;;;;;;;4.43;2.85;;;;;;;;;;6242968;23;20111;-83
2021/08/05 14:45:33;;;;;;;2.42;2.22;;;;;;;;;;6214799;23;20024;-84
2021/08/05 14:48:03;;;;;;;3.53;2.75;;;;;;;;;;6242387;23;20024;-83
2021/08/05 14:50:32;;;;;;;2.50;2.22;;;;;;;;;;6226199;23;20035;-82